Time;durP1;ratioP1;P1;durP2;ratioP2;P2;SDS_P1;SDS_P2;PMS_P1;PMS_P2;Temp;Humidity;BMP_temperature;BMP_pressure;BME280_temperature;BME280_humidity;BME280_pressure;Samples;Min_cycle;Max_cycle;Signal;HPM_P1;HPM_P2
2022/05/20 00:03:24;;;;;;;2.63;1.67;;;;;;;19.69;74.10;100360.28;10308120;28;20047;-80
2022/05/20 00:08:26;;;;;;;4.90;1.73;;;;;;;19.77;74.16;100353.50;10287841;28;20141;-79
2022/05/20 00:13:29;;;;;;;2.72;1.70;;;;;;;19.51;75.80;100367.63;10445673;28;20044;-80
2022/05/20 00:18:30;;;;;;;2.78;1.90;;;;;;;19.48;76.09;100358.03;10473381;28;20047;-80
2022/05/20 00:23:32;;;;;;;3.08;1.58;;;;;;;19.48;76.14;100376.69;10557761;28;20052;-79
2022/05/20 00:28:34;;;;;;;1.80;1.35;;;;;;;19.30;77.45;100380.47;10468349;28;20047;-80
2022/05/20 00:33:37;;;;;;;2.35;1.50;;;;;;;19.31;77.37;100385.75;10561169;28;20039;-80
2022/05/20 00:38:39;;;;;;;3.08;1.40;;;;;;;19.04;78.99;100393.63;10468971;28;20081;-80
2022/05/20 00:43:46;;;;;;;2.05;1.50;;;;;;;18.95;79.72;100402.19;10469535;28;20047;-80
2022/05/20 00:49:00;;;;;;;2.75;1.55;;;;;;;18.74;81.01;100414.13;10467156;28;20044;-80
2022/05/20 00:54:10;;;;;;;2.30;1.38;;;;;;;18.59;81.77;100416.72;10466019;28;20115;-79
2022/05/20 00:59:18;;;;;;;3.53;1.60;;;;;;;18.78;80.57;100427.16;10469549;28;20050;-79
2022/05/20 01:04:22;;;;;;;3.33;1.70;;;;;;;18.65;81.25;100432.31;10555522;28;20040;-80
2022/05/20 01:09:23;;;;;;;1.92;1.33;;;;;;;18.67;80.83;100433.06;10555885;28;20052;-79
2022/05/20 01:14:26;;;;;;;2.47;1.95;;;;;;;18.69;81.27;100433.03;10464934;28;20039;-77
2022/05/20 01:19:38;;;;;;;3.67;1.75;;;;;;;18.34;83.57;100429.75;10545167;28;20044;-78
2022/05/20 01:24:40;;;;;;;2.92;1.67;;;;;;;18.33;83.99;100436.00;10548528;28;20051;-79
2022/05/20 01:29:41;;;;;;;6.00;1.80;;;;;;;18.41;83.84;100442.56;10492869;28;20032;-78
2022/05/20 01:34:43;;;;;;;3.78;2.13;;;;;;;18.59;82.96;100446.00;10569232;28;20105;-79
2022/05/20 01:39:45;;;;;;;2.25;1.90;;;;;;;18.44;84.01;100446.88;10562701;28;20052;-79
2022/05/20 01:44:55;;;;;;;3.78;1.90;;;;;;;18.25;84.78;100449.75;10474922;28;20391;-79
2022/05/20 01:50:06;;;;;;;2.60;1.75;;;;;;;18.14;85.05;100452.16;10476095;28;20048;-79
2022/05/20 01:55:18;;;;;;;8.10;2.30;;;;;;;17.95;87.20;100439.03;10472905;28;20040;-78
2022/05/20 02:00:25;;;;;;;3.65;2.28;;;;;;;17.87;87.78;100435.94;10492748;28;20643;-78
2022/05/20 02:05:39;;;;;;;6.30;1.50;;;;;;;17.77;88.72;100443.56;10575744;28;20044;-79
2022/05/20 02:10:47;;;;;;;3.17;1.90;;;;;;;18.01;86.99;100435.16;10560222;28;20048;-82
2022/05/20 02:15:55;;;;;;;4.80;2.25;;;;;;;17.85;86.58;100435.19;10564372;28;20040;-83
2022/05/20 02:21:03;;;;;;;3.67;2.35;;;;;;;17.59;89.41;100449.88;10563588;28;20046;-82
2022/05/20 02:26:12;;;;;;;2.47;1.67;;;;;;;17.59;89.20;100449.88;10479495;28;20048;-82
2022/05/20 02:31:19;;;;;;;3.10;1.90;;;;;;;17.60;88.37;100449.75;10564873;28;20040;-82
2022/05/20 02:36:22;;;;;;;2.05;1.85;;;;;;;17.54;88.79;100462.53;10479546;28;20060;-81
2022/05/20 02:41:25;;;;;;;2.03;1.60;;;;;;;17.77;87.59;100461.31;10567744;28;20101;-82
2022/05/20 02:46:26;;;;;;;11.30;2.47;;;;;;;17.77;87.20;100482.59;10573348;28;20050;-83
2022/05/20 02:51:28;;;;;;;3.60;1.83;;;;;;;17.38;88.86;100481.09;10486238;28;20509;-80
2022/05/20 02:56:29;;;;;;;5.10;2.50;;;;;;;17.33;90.16;100472.50;10484447;28;20044;-83
2022/05/20 03:06:52;;;;;;;3.97;2.05;;;;;;;17.41;89.73;100483.59;10485581;28;20136;-83
2022/05/20 03:11:54;;;;;;;4.43;3.00;;;;;;;17.15;90.39;100492.94;10482355;28;20055;-83
2022/05/20 03:16:59;;;;;;;4.22;3.35;;;;;;;16.86;92.79;100491.75;10564813;28;20379;-82
2022/05/20 03:22:02;;;;;;;4.15;2.28;;;;;;;16.75;93.39;100492.31;10492933;28;20105;-82
2022/05/20 03:27:04;;;;;;;3.13;2.40;;;;;;;16.78;91.98;100502.78;10487574;28;20036;-82
2022/05/20 03:32:07;;;;;;;2.10;1.42;;;;;;;17.36;84.40;100502.44;10570954;28;20088;-82
2022/05/20 03:37:08;;;;;;;3.20;1.20;;;;;;;17.42;83.06;100514.53;10483316;28;20040;-82
2022/05/20 03:42:10;;;;;;;1.65;1.50;;;;;;;17.07;85.78;100522.53;10481081;28;20086;-82
2022/05/20 03:47:12;;;;;;;1.40;1.30;;;;;;;17.05;85.10;100512.94;10568923;28;20058;-81
2022/05/20 03:52:14;;;;;;;9.02;3.42;;;;;;;17.42;83.20;100519.00;10568405;28;20048;-80
2022/05/20 03:57:15;;;;;;;3.13;1.20;;;;;;;17.57;81.91;100512.88;10482147;28;20428;-81
2022/05/20 04:02:17;;;;;;;1.60;1.10;;;;;;;17.53;82.54;100521.94;10481938;28;20048;-81
2022/05/20 04:07:24;;;;;;;1.77;1.50;;;;;;;17.76;80.93;100526.09;10577951;28;20040;-82
2022/05/20 04:12:32;;;;;;;2.67;1.00;;;;;;;18.10;79.20;100525.94;10583787;28;20059;-82
2022/05/20 04:17:34;;;;;;;1.65;1.20;;;;;;;18.14;78.79;100526.63;10571034;28;20040;-82
2022/05/20 04:22:38;;;;;;;1.17;1.08;;;;;;;18.26;77.85;100538.41;10565614;28;20044;-82
2022/05/20 04:27:40;;;;;;;2.45;1.02;;;;;;;18.12;78.95;100540.03;10566431;28;20044;-80
2022/05/20 04:32:41;;;;;;;1.55;1.30;;;;;;;18.05;79.75;100546.63;10489212;28;20071;-82
2022/05/20 04:37:43;;;;;;;1.20;1.10;;;;;;;18.14;80.37;100546.13;10571949;28;20063;-81
2022/05/20 04:48:05;;;;;;;1.85;1.02;;;;;;;18.63;77.13;100566.47;10578797;28;20052;-80
2022/05/20 04:53:07;;;;;;;1.10;1.00;;;;;;;18.71;77.01;100576.72;10580813;28;20052;-82
2022/05/20 04:58:08;;;;;;;3.50;1.30;;;;;;;18.76;76.94;100575.53;10583265;28;20044;-82
2022/05/20 05:03:15;;;;;;;1.42;1.33;;;;;;;18.81;76.90;100586.75;10501728;28;20043;-82
2022/05/20 05:08:17;;;;;;;1.63;1.20;;;;;;;18.75;77.82;100600.44;10572946;28;20047;-82
2022/05/20 05:13:18;;;;;;;2.38;1.40;;;;;;;19.06;75.76;100601.34;10567599;28;20051;-81
2022/05/20 05:18:23;;;;;;;3.58;1.55;;;;;;;19.10;75.65;100602.91;10581060;28;20040;-81
2022/05/20 05:23:25;;;;;;;4.63;3.90;;;;;;;19.01;76.65;100608.75;10592499;28;20044;-79
2022/05/20 05:28:28;;;;;;;2.15;1.80;;;;;;;19.32;75.07;100606.00;10507462;28;20070;-78
2022/05/20 05:33:30;;;;;;;3.78;2.70;;;;;;;19.39;74.17;100604.72;10506620;28;20032;-82
2022/05/20 05:38:32;;;;;;;5.85;2.40;;;;;;;19.42;74.62;100609.00;10482697;28;20048;-82
2022/05/20 05:43:33;;;;;;;4.70;4.30;;;;;;;19.47;73.86;100593.56;10497682;28;20044;-81
2022/05/20 05:48:35;;;;;;;3.30;3.00;;;;;;;20.24;70.20;100588.91;10576513;28;20048;-82
2022/05/20 05:53:37;;;;;;;2.78;2.00;;;;;;;20.49;69.45;100583.75;10494125;28;20055;-81
2022/05/20 05:58:39;;;;;;;1.77;1.48;;;;;;;20.27;70.96;100594.03;10493017;28;20048;-80
2022/05/20 06:03:42;;;;;;;3.40;1.60;;;;;;;20.85;68.90;100588.53;10489109;28;20052;-82
2022/05/20 06:08:43;;;;;;;2.00;1.88;;;;;;;20.41;69.10;100599.38;10555657;28;20406;-79
2022/05/20 06:13:45;;;;;;;3.25;3.00;;;;;;;20.50;68.43;100600.66;10556527;28;20086;-79
2022/05/20 06:18:47;;;;;;;6.72;2.70;;;;;;;20.36;70.02;100597.00;10561283;28;20055;-79
2022/05/20 06:23:50;;;;;;;5.45;3.15;;;;;;;20.14;70.67;100596.63;10560616;28;20105;-79
2022/05/20 06:28:52;;;;;;;5.15;4.75;;;;;;;20.12;71.05;100596.72;10566938;28;20044;-79
2022/05/20 06:33:53;;;;;;;7.88;3.70;;;;;;;20.78;68.30;100600.56;10560797;28;20044;-79
2022/05/20 06:44:15;;;;;;;2.88;2.60;;;;;;;21.49;66.48;100591.38;10562987;28;20040;-80
2022/05/20 06:49:17;;;;;;;3.88;3.58;;;;;;;21.00;66.25;100589.31;10559889;28;20044;-79
2022/05/20 06:54:18;;;;;;;4.15;3.42;;;;;;;21.16;66.05;100583.78;10559355;28;20036;-79
2022/05/20 06:59:20;;;;;;;4.75;4.35;;;;;;;21.48;64.58;100579.00;10560730;28;20401;-79
2022/05/20 07:04:22;;;;;;;6.28;5.82;;;;;;;21.38;63.85;100588.56;10561883;28;20044;-80
2022/05/20 07:09:23;;;;;;;5.82;5.30;;;;;;;21.44;66.76;100582.84;10559983;28;20044;-80
2022/05/20 07:14:25;;;;;;;5.78;5.38;;;;;;;21.88;64.77;100594.94;10559572;28;20059;-80
2022/05/20 07:19:26;;;;;;;7.35;4.38;;;;;;;21.85;64.64;100597.84;10561993;28;20074;-81
2022/05/20 07:24:28;;;;;;;4.85;4.50;;;;;;;21.67;65.19;100592.78;10560384;28;20485;-80
2022/05/20 07:29:30;;;;;;;9.77;5.95;;;;;;;21.80;63.46;100584.78;10559244;28;20044;-80
2022/05/20 07:34:33;;;;;;;6.63;6.20;;;;;;;21.60;64.99;100591.53;10559978;28;20072;-80
2022/05/20 07:39:35;;;;;;;6.20;5.60;;;;;;;21.78;64.63;100584.03;10561035;28;20055;-81
2022/05/20 07:44:36;;;;;;;5.85;5.45;;;;;;;21.98;64.66;100563.03;10557479;28;20040;-78
2022/05/20 07:49:38;;;;;;;7.07;6.47;;;;;;;22.18;60.61;100557.16;10556333;28;20044;-79
2022/05/20 07:54:44;;;;;;;5.40;5.00;;;;;;;22.47;59.24;100555.03;10559824;28;20508;-79
2022/05/20 07:59:48;;;;;;;;;;;;;;;22.62;58.17;100548.56;10557618;28;20077;-80
2022/05/20 08:04:58;;;;;;;5.45;5.05;;;;;;;22.31;60.55;100543.72;10470972;28;19927;-80
2022/05/20 08:10:02;;;;;;;6.93;6.25;;;;;;;22.25;61.02;100554.88;10558682;28;20055;-82
2022/05/20 08:15:04;;;;;;;6.88;6.30;;;;;;;22.78;58.68;100542.06;10560703;28;20036;-82
2022/05/20 08:20:10;;;;;;;5.78;5.28;;;;;;;22.83;61.16;100531.84;10471994;28;20044;-81
2022/05/20 08:25:11;;;;;;;4.60;4.30;;;;;;;23.27;58.16;100527.63;10571455;28;20044;-82
2022/05/20 08:30:23;;;;;;;4.80;4.40;;;;;;;23.61;55.16;100516.00;10477795;28;20294;-82
2022/05/20 08:35:27;;;;;;;4.32;4.03;;;;;;;23.50;55.16;100518.66;10562419;28;20052;-81
2022/05/20 08:40:35;;;;;;;5.47;3.60;;;;;;;23.70;55.99;100503.72;10560249;28;20044;-81
2022/05/20 08:45:36;;;;;;;4.65;4.35;;;;;;;24.28;55.37;100507.09;10558270;28;20044;-79
2022/05/20 08:50:43;;;;;;;4.55;4.13;;;;;;;23.76;58.44;100513.94;10548065;28;20113;-79
2022/05/20 08:55:44;;;;;;;4.72;4.32;;;;;;;24.54;54.58;100504.13;10577922;28;20032;-78
2022/05/20 09:00:46;;;;;;;4.82;3.92;;;;;;;24.42;53.76;100503.28;10576097;28;20148;-77
2022/05/20 09:05:48;;;;;;;5.15;3.70;;;;;;;24.60;54.82;100512.53;10464813;28;20382;-79
2022/05/20 09:10:56;;;;;;;4.35;3.95;;;;;;;24.46;53.50;100503.91;10552489;28;20044;-80
2022/05/20 09:16:01;;;;;;;3.13;2.83;;;;;;;24.11;57.51;100512.97;10556235;28;20040;-79
2022/05/20 09:21:04;;;;;;;3.25;2.97;;;;;;;24.61;54.26;100499.94;10548479;28;20036;-78
2022/05/20 09:26:11;;;;;;;3.83;3.42;;;;;;;24.34;55.39;100500.34;10557216;28;20078;-77
2022/05/20 09:31:24;;;;;;;2.85;2.65;;;;;;;24.32;56.97;100500.47;10551991;28;20048;-79
2022/05/20 09:36:41;;;;;;;6.13;2.75;;;;;;;24.23;58.20;100501.25;10548831;28;20481;-79
2022/05/20 09:41:45;;;;;;;3.30;3.00;;;;;;;24.28;56.39;100498.16;10543765;28;20056;-77
2022/05/20 09:46:54;;;;;;;3.05;2.65;;;;;;;24.32;56.43;100492.44;10557681;28;20391;-80
2022/05/20 09:51:59;;;;;;;3.17;2.60;;;;;;;24.09;56.09;100478.19;10556618;28;20123;-77
2022/05/20 09:57:13;;;;;;;2.28;2.08;;;;;;;24.00;57.18;100468.19;10559885;28;20361;-77
2022/05/20 10:02:30;;;;;;;2.65;2.13;;;;;;;24.15;56.70;100449.97;10560250;28;20055;-78
2022/05/20 10:07:47;;;;;;;1.80;1.70;;;;;;;24.56;52.57;100448.41;10558771;28;20040;-78
2022/05/20 10:12:50;;;;;;;4.68;3.17;;;;;;;24.31;53.22;100437.00;10558626;28;20040;-78
2022/05/20 10:18:19;;;;;;;3.05;2.28;;;;;;;24.40;55.35;100428.19;10473793;28;20043;-77
2022/05/20 10:23:32;;;;;;;2.45;1.88;;;;;;;25.00;54.24;100431.19;10558836;28;20055;-78
2022/05/20 10:34:15;;;;;;;3.63;2.40;;;;;;;24.47;53.93;100412.41;10560802;28;20040;-78
2022/05/20 10:39:40;;;;;;;2.45;1.88;;;;;;;24.64;54.86;100414.53;10560085;28;20105;-79
2022/05/20 10:50:56;;;;;;;1.92;1.83;;;;;;;24.56;54.93;100374.00;10567611;28;20044;-78
2022/05/20 10:56:25;;;;;;;3.30;2.35;;;;;;;24.69;56.33;100360.38;10563299;28;20040;-78
2022/05/20 11:01:35;;;;;;;2.00;1.35;;;;;;;25.72;52.30;100341.47;10473173;28;20048;-78
2022/05/20 11:07:03;;;;;;;2.05;1.77;;;;;;;25.77;51.79;100338.41;10553515;28;20044;-78
2022/05/20 11:12:05;;;;;;;2.40;2.20;;;;;;;25.31;52.22;100318.25;10558438;28;20093;-78
2022/05/20 11:17:31;;;;;;;1.98;1.63;;;;;;;25.15;52.33;100318.78;10551664;28;20096;-78
2022/05/20 11:22:51;;;;;;;2.03;1.80;;;;;;;26.10;52.46;100299.44;10464635;28;20044;-77
2022/05/20 11:28:24;;;;;;;2.92;2.15;;;;;;;26.73;50.47;100288.16;10463986;28;20068;-77
2022/05/20 11:33:40;;;;;;;2.00;1.38;;;;;;;27.36;47.50;100267.59;10560538;28;20036;-77
2022/05/20 11:38:58;;;;;;;3.08;1.90;;;;;;;27.77;47.60;100267.22;10501472;28;20048;-78
2022/05/20 11:44:03;;;;;;;2.95;1.70;;;;;;;27.83;47.20;100267.44;10507854;28;20039;-77
2022/05/20 11:49:26;;;;;;;2.05;1.58;;;;;;;27.81;46.89;100266.75;10573916;28;20040;-77
2022/05/20 11:54:55;;;;;;;2.13;1.45;;;;;;;29.02;45.31;100248.88;10566294;28;20040;-77
2022/05/20 12:00:05;;;;;;;5.07;1.30;;;;;;;29.19;43.03;100241.69;10486637;28;20074;-77
2022/05/20 12:05:12;;;;;;;2.85;1.20;;;;;;;29.34;42.17;100236.47;10570368;28;20127;-77
2022/05/20 12:10:43;;;;;;;2.08;1.30;;;;;;;29.18;43.74;100222.91;10482390;28;20056;-77
2022/05/20 12:15:47;;;;;;;2.58;1.45;;;;;;;29.45;43.61;100210.97;10569774;28;20468;-77
2022/05/20 12:26:24;;;;;;;1.45;1.35;;;;;;;29.54;41.52;100205.38;10571447;28;20107;-77
2022/05/20 12:31:31;;;;;;;1.63;1.20;;;;;;;28.97;45.40;100191.72;10573272;28;20051;-77
2022/05/20 12:36:36;;;;;;;4.18;1.30;;;;;;;29.05;43.92;100186.31;10574323;28;20456;-77
2022/05/20 12:41:44;;;;;;;1.40;1.30;;;;;;;29.30;44.46;100178.25;10573575;28;20048;-77
2022/05/20 12:46:57;;;;;;;2.13;1.30;;;;;;;29.09;42.88;100176.88;10571304;28;20053;-78
2022/05/20 12:52:33;;;;;;;2.05;1.02;;;;;;;29.28;42.42;100164.06;10565741;28;20468;-78
2022/05/20 12:57:35;;;;;;;1.45;1.20;;;;;;;29.75;44.22;100155.31;10569744;28;20047;-77
2022/05/20 13:02:51;;;;;;;2.35;1.10;;;;;;;29.56;42.63;100145.66;10574443;28;20044;-78
2022/05/20 13:07:55;;;;;;;1.23;1.10;;;;;;;29.27;44.02;100146.13;10566292;28;20115;-77
2022/05/20 13:13:00;;;;;;;2.17;0.95;;;;;;;29.20;43.51;100136.97;10558272;28;20040;-78
2022/05/20 13:18:12;;;;;;;3.65;1.83;;;;;;;29.50;44.79;100120.06;10467953;28;20067;-78
2022/05/20 13:23:21;;;;;;;12.18;3.55;;;;;;;29.76;42.40;100103.69;10571679;28;20032;-78
2022/05/20 13:28:29;;;;;;;3.45;1.23;;;;;;;29.81;43.65;100098.59;10557440;28;20048;-79
2022/05/20 13:33:37;;;;;;;1.40;1.10;;;;;;;29.66;42.78;100089.44;10482753;28;20517;-79
2022/05/20 13:38:49;;;;;;;1.08;0.98;;;;;;;29.27;41.19;100076.56;10557010;28;20482;-78
2022/05/20 13:43:53;;;;;;;2.03;1.10;;;;;;;28.80;43.27;100073.59;10561228;28;20044;-78
2022/05/20 13:49:14;;;;;;;2.03;1.20;;;;;;;28.62;43.92;100060.19;10467028;28;20044;-78
2022/05/20 13:54:20;;;;;;;3.20;1.02;;;;;;;28.73;42.75;100048.19;10553378;28;20051;-77
2022/05/20 13:59:27;;;;;;;4.63;1.20;;;;;;;28.81;43.46;100037.41;10554015;28;20070;-78
2022/05/20 14:04:32;;;;;;;2.67;1.05;;;;;;;29.18;41.62;100022.59;10559694;28;20051;-78
2022/05/20 14:09:38;;;;;;;2.83;1.77;;;;;;;29.35;41.99;100011.59;10560276;28;20040;-80
2022/05/20 14:14:40;;;;;;;3.60;1.20;;;;;;;29.23;41.90;99996.72;10567170;28;20055;-81
2022/05/20 14:19:48;;;;;;;4.68;1.80;;;;;;;29.14;41.97;99966.09;10562726;28;20040;-81
2022/05/20 14:24:58;;;;;;;2.20;1.30;;;;;;;28.94;42.24;99955.75;10555263;28;20055;-82
2022/05/20 14:30:44;;;;;;;1.98;1.10;;;;;;;28.37;44.43;99951.09;10557585;28;20048;-82
2022/05/20 14:35:52;;;;;;;4.53;1.20;;;;;;;29.35;41.88;99937.63;10519044;28;20060;-82
2022/05/20 14:40:58;;;;;;;1.75;1.23;;;;;;;29.69;42.35;99917.59;10461787;28;20067;-82
2022/05/20 14:46:02;;;;;;;3.28;1.48;;;;;;;29.43;40.38;99924.06;10564524;28;20070;-82
2022/05/20 14:51:07;;;;;;;2.55;1.48;;;;;;;29.39;41.10;99899.19;10478058;28;20044;-82
2022/05/20 14:56:39;;;;;;;1.17;1.08;;;;;;;30.37;40.16;99890.69;10477878;28;20048;-82
2022/05/20 15:01:40;;;;;;;1.20;1.00;;;;;;;30.26;39.66;99884.81;10566677;28;20044;-82
2022/05/20 15:06:44;;;;;;;1.80;1.17;;;;;;;30.45;39.27;99865.34;10585981;28;20043;-82
2022/05/20 15:11:46;;;;;;;1.50;1.35;;;;;;;30.03;40.19;99863.91;10593718;28;20069;-82
2022/05/20 15:16:47;;;;;;;1.48;1.38;;;;;;;29.90;40.22;99860.94;10596061;28;20095;-82
2022/05/20 15:21:50;;;;;;;3.60;1.50;;;;;;;30.67;39.29;99831.94;10509413;28;20028;-80
2022/05/20 15:26:53;;;;;;;2.17;1.30;;;;;;;30.49;39.54;99827.88;10501548;28;20079;-83
2022/05/20 15:37:24;;;;;;;1.83;1.40;;;;;;;29.92;40.97;99797.41;10570110;28;20044;-83
2022/05/20 15:42:27;;;;;;;1.20;1.10;;;;;;;30.15;40.96;99783.91;10569945;28;20048;-82
2022/05/20 15:47:28;;;;;;;1.40;1.10;;;;;;;30.18;42.34;99779.97;10477571;28;20444;-82
2022/05/20 15:52:34;;;;;;;1.25;1.10;;;;;;;30.25;40.60;99780.94;10562702;28;20032;-82
2022/05/20 15:57:41;;;;;;;2.13;1.30;;;;;;;30.29;39.57;99757.03;10561368;28;20099;-82
2022/05/20 16:02:44;;;;;;;2.55;1.00;;;;;;;29.91;41.57;99757.78;10561333;28;20044;-82
2022/05/20 16:07:53;;;;;;;2.33;1.27;;;;;;;29.47;41.37;99741.28;10581730;28;20044;-82
2022/05/20 16:12:56;;;;;;;1.35;1.10;;;;;;;29.11;42.22;99720.13;10580358;28;20040;-82
2022/05/20 16:17:57;;;;;;;2.45;1.30;;;;;;;28.79;42.80;99714.81;10579458;28;20044;-82
2022/05/20 16:23:00;;;;;;;1.77;1.00;;;;;;;28.64;43.89;99711.97;10580576;28;20107;-82
2022/05/20 16:28:01;;;;;;;3.75;1.40;;;;;;;28.85;42.26;99695.19;10575055;28;20048;-82
2022/05/20 16:33:04;;;;;;;1.83;1.40;;;;;;;28.67;43.69;99688.13;10482756;28;20109;-82
2022/05/20 16:38:08;;;;;;;1.83;1.40;;;;;;;28.61;44.11;99686.16;10477633;28;20040;-81
2022/05/20 16:43:09;;;;;;;1.73;1.38;;;;;;;28.30;44.01;99687.88;10563563;28;20052;-82
2022/05/20 16:48:32;;;;;;;3.65;1.80;;;;;;;27.81;45.36;99688.75;10562896;28;20044;-82
2022/05/20 16:53:34;;;;;;;1.40;1.30;;;;;;;27.81;44.92;99669.00;10559861;28;20060;-82
2022/05/20 17:03:56;;;;;;;2.72;2.10;;;;;;;27.34;46.82;99645.28;10559503;28;20070;-81
2022/05/20 17:08:58;;;;;;;3.25;1.88;;;;;;;27.12;47.87;99636.78;10558997;28;20055;-81
2022/05/20 17:13:59;;;;;;;3.17;1.60;;;;;;;26.85;52.04;99610.88;10565253;28;20052;-82
2022/05/20 17:19:01;;;;;;;2.90;1.60;;;;;;;26.61;55.09;99597.34;10560624;28;20448;-83
2022/05/20 17:29:24;;;;;;;2.80;2.60;;;;;;;25.79;60.21;99601.34;10560333;28;20051;-82
2022/05/20 17:34:25;;;;;;;9.82;5.43;;;;;;;25.80;66.62;99687.34;10576410;28;20095;-79
2022/05/20 17:39:27;;;;;;;12.63;6.03;;;;;;;24.39;72.85;99642.00;10491169;28;20047;-80
2022/05/20 17:44:29;;;;;;;11.88;5.25;;;;;;;23.38;84.14;99581.66;10499755;28;20383;-81
2022/05/20 17:49:31;;;;;;;8.30;4.57;;;;;;;22.84;87.51;99545.47;10481856;28;20051;-81
2022/05/20 17:54:32;;;;;;;7.00;5.07;;;;;;;22.54;92.30;99500.84;10557635;28;20448;-81
2022/05/20 17:59:34;;;;;;;5.80;5.28;;;;;;;22.45;95.86;99490.13;10469962;28;20035;-81
2022/05/20 18:04:36;;;;;;;8.10;5.82;;;;;;;22.57;96.65;99473.78;10556336;28;20052;-81
2022/05/20 18:09:37;;;;;;;10.27;8.77;;;;;;;22.82;99.11;99460.84;10558486;28;20063;-81
2022/05/20 18:14:42;;;;;;;8.90;6.20;;;;;;;22.63;100.00;99449.13;10562142;28;20044;-81
2022/05/20 18:19:43;;;;;;;5.50;5.10;;;;;;;22.60;95.81;99502.97;10569308;28;20097;-81
2022/05/20 18:24:47;;;;;;;6.53;6.03;;;;;;;22.35;100.00;99498.97;10563400;28;20073;-81
2022/05/20 18:29:49;;;;;;;9.30;5.57;;;;;;;22.28;99.24;99502.34;10561553;28;20036;-81
2022/05/20 18:40:13;;;;;;;6.20;5.18;;;;;;;22.37;97.18;99493.47;10561122;28;20404;-82
2022/05/20 18:45:16;;;;;;;6.63;6.05;;;;;;;22.08;100.00;99461.22;10565050;28;20051;-81
2022/05/20 18:50:20;;;;;;;6.82;6.22;;;;;;;21.86;100.00;99467.63;10480221;28;20047;-82
2022/05/20 18:55:24;;;;;;;7.05;6.45;;;;;;;21.88;98.97;99466.53;10565925;28;20494;-82
2022/05/20 19:00:31;;;;;;;7.50;6.90;;;;;;;21.58;99.88;99437.94;10474580;28;20409;-82
2022/05/20 19:05:33;;;;;;;7.80;7.15;;;;;;;21.40;100.00;99444.88;10474273;28;20048;-81
2022/05/20 19:10:34;;;;;;;9.02;7.88;;;;;;;21.26;100.00;99439.84;10561974;28;20493;-82
2022/05/20 19:15:36;;;;;;;4.38;3.97;;;;;;;21.30;95.59;99458.16;10473403;28;20383;-82
2022/05/20 19:20:38;;;;;;;5.45;3.90;;;;;;;21.00;97.18;99442.06;10561594;28;20040;-82
2022/05/20 19:25:46;;;;;;;4.40;3.90;;;;;;;21.01;93.92;99454.44;10570282;28;20028;-81
2022/05/20 19:30:48;;;;;;;6.65;4.88;;;;;;;20.86;95.75;99449.41;10571648;28;20051;-81
2022/05/20 19:35:50;;;;;;;6.40;4.32;;;;;;;20.64;97.66;99445.00;10562063;28;20047;-81
2022/05/20 19:40:52;;;;;;;4.60;4.20;;;;;;;20.54;99.40;99457.44;10562825;28;20048;-82
2022/05/20 19:45:53;;;;;;;5.35;4.85;;;;;;;20.57;100.00;99461.66;10558312;28;20048;-81
2022/05/20 19:50:57;;;;;;;5.53;5.03;;;;;;;20.72;98.83;99440.81;10559709;28;20083;-80
2022/05/20 19:55:59;;;;;;;4.38;4.00;;;;;;;20.85;94.74;99434.38;10572003;28;20040;-82
2022/05/20 20:01:01;;;;;;;4.82;4.47;;;;;;;20.88;94.56;99431.41;10478373;28;20040;-77
2022/05/20 20:06:06;;;;;;;7.50;6.80;;;;;;;20.97;93.62;99434.28;10563624;28;20047;-78
2022/05/20 20:17:34;;;;;;;6.00;5.38;;;;;;;20.76;95.86;99501.03;10561514;28;20389;-83
2022/05/20 20:27:57;;;;;;;3.53;2.60;;;;;;;20.26;89.61;99612.72;10472622;28;20052;-82
2022/05/20 20:32:58;;;;;;;2.90;2.30;;;;;;;19.93;90.06;99587.72;10468324;28;20044;-83
2022/05/20 20:38:00;;;;;;;3.75;2.20;;;;;;;19.69;91.51;99589.59;10453208;28;20101;-82
2022/05/20 20:43:04;;;;;;;11.82;2.00;;;;;;;19.48;90.48;99590.25;10474504;28;20048;-83
2022/05/20 20:48:06;;;;;;;7.97;2.17;;;;;;;19.15;90.82;99572.31;10575696;28;20078;-83
2022/05/20 20:53:10;;;;;;;1.98;1.02;;;;;;;19.04;88.21;99553.63;10562782;28;20462;-82
2022/05/20 20:58:16;;;;;;;2.05;0.95;;;;;;;18.86;90.01;99561.16;10450459;28;20036;-82
2022/05/20 21:03:22;;;;;;;4.17;1.17;;;;;;;18.80;89.34;99549.13;10488548;28;20077;-83
2022/05/20 21:08:55;;;;;;;2.10;1.00;;;;;;;18.76;94.28;99538.81;10506789;28;20048;-82
2022/05/20 21:13:57;;;;;;;4.38;1.23;;;;;;;18.66;96.38;99557.25;10448193;28;20393;-82
2022/05/20 21:18:59;;;;;;;2.83;1.40;;;;;;;18.66;98.28;99554.59;10464695;28;20366;-82
2022/05/20 21:24:00;;;;;;;1.70;1.30;;;;;;;18.70;97.88;99547.25;10550224;28;20401;-82
2022/05/20 21:29:02;;;;;;;7.70;1.63;;;;;;;18.77;96.92;99551.16;10464116;28;20113;-82
2022/05/20 21:34:03;;;;;;;4.13;1.60;;;;;;;18.75;98.24;99567.25;10549799;28;20044;-82
2022/05/20 21:39:05;;;;;;;4.00;1.60;;;;;;;18.88;96.88;99588.50;10549545;28;20040;-83
2022/05/20 21:44:10;;;;;;;2.08;1.67;;;;;;;18.87;97.88;99582.34;10463742;28;20078;-82
2022/05/20 21:49:11;;;;;;;2.63;1.60;;;;;;;18.84;99.58;99565.72;10464045;28;20044;-83
2022/05/20 21:54:14;;;;;;;3.17;1.63;;;;;;;18.82;100.00;99568.50;10464287;28;20044;-82
2022/05/20 21:59:16;;;;;;;2.60;2.20;;;;;;;18.84;100.00;99589.69;10551540;28;20044;-83
2022/05/20 22:09:38;;;;;;;3.03;2.13;;;;;;;19.07;98.39;99615.47;10496527;28;20070;-83
2022/05/20 22:14:39;;;;;;;3.45;2.40;;;;;;;19.00;99.58;99635.56;10582266;28;20063;-82
2022/05/20 22:19:42;;;;;;;3.17;2.17;;;;;;;18.95;98.25;99627.06;10497255;28;20099;-82
2022/05/20 22:24:44;;;;;;;3.92;1.95;;;;;;;19.07;94.72;99604.81;10571006;28;20036;-84
2022/05/20 22:29:47;;;;;;;3.55;2.20;;;;;;;19.00;97.30;99614.25;10470463;28;20079;-82
2022/05/20 22:34:49;;;;;;;5.00;2.95;;;;;;;18.79;98.53;99610.50;10472262;28;20048;-83
2022/05/20 22:39:51;;;;;;;4.80;2.50;;;;;;;18.72;99.39;99618.06;10568277;28;20044;-83
2022/05/20 22:44:53;;;;;;;3.03;1.85;;;;;;;18.71;99.89;99604.84;10455144;28;20048;-84
2022/05/20 22:49:54;;;;;;;2.72;2.05;;;;;;;18.66;99.50;99624.63;10466749;28;20089;-84
2022/05/20 23:00:18;;;;;;;4.35;2.20;;;;;;;18.61;98.83;99637.44;10558365;28;20059;-82
2022/05/20 23:05:19;;;;;;;3.20;2.45;;;;;;;18.60;98.04;99642.88;10496816;28;20043;-82
2022/05/20 23:10:21;;;;;;;2.15;2.03;;;;;;;18.59;98.52;99644.69;10584835;28;20066;-82
2022/05/20 23:15:42;;;;;;;3.67;2.20;;;;;;;18.58;98.72;99645.63;10512483;28;20131;-83
2022/05/20 23:20:45;;;;;;;2.67;1.80;;;;;;;18.60;96.83;99657.03;10492304;28;20402;-83
2022/05/20 23:25:48;;;;;;;3.40;1.80;;;;;;;18.67;95.44;99652.13;10499557;28;20063;-83
2022/05/20 23:30:55;;;;;;;2.85;2.03;;;;;;;18.59;94.11;99666.00;10486697;28;20051;-83
2022/05/20 23:35:56;;;;;;;2.40;2.20;;;;;;;18.46;95.88;99683.78;10474256;28;20058;-84
2022/05/20 23:40:58;;;;;;;3.38;2.00;;;;;;;18.60;94.50;99685.47;10557044;28;20551;-83
2022/05/20 23:46:00;;;;;;;3.65;1.95;;;;;;;18.60;94.47;99688.97;10473294;28;20048;-84
2022/05/20 23:51:02;;;;;;;4.22;2.17;;;;;;;18.59;94.18;99679.31;10472581;28;20042;-82
